Time;durP1;ratioP1;P1;durP2;ratioP2;P2;SDS_P1;SDS_P2;PMS_P1;PMS_P2;Temp;Humidity;BMP_temperature;BMP_pressure;BME280_temperature;BME280_humidity;BME280_pressure;Samples;Min_cycle;Max_cycle;Signal;HPM_P1;HPM_P2
2023/06/20 00:00:15;;;;;;;7.50;3.47;;;;;;;;;;5130696;27;20500;-74
2023/06/20 00:02:46;;;;;;;8.05;4.60;;;;;;;;;;5147895;27;20421;-74
2023/06/20 00:05:17;;;;;;;7.22;4.88;;;;;;;;;;5148063;27;20057;-73
2023/06/20 00:07:46;;;;;;;11.25;5.70;;;;;;;;;;5147844;27;20695;-75
2023/06/20 00:10:17;;;;;;;10.48;5.50;;;;;;;;;;5148466;27;20116;-74
2023/06/20 00:12:49;;;;;;;8.18;5.80;;;;;;;;;;5148859;27;20413;-74
2023/06/20 00:15:25;;;;;;;11.48;6.88;;;;;;;;;;5148078;27;20046;-75
2023/06/20 00:18:01;;;;;;;8.40;5.75;;;;;;;;;;5148859;27;20529;-74
2023/06/20 00:20:31;;;;;;;11.52;5.28;;;;;;;;;;5148130;27;20049;-74
2023/06/20 00:23:02;;;;;;;7.82;5.00;;;;;;;;;;5148706;27;20069;-74
2023/06/20 00:25:32;;;;;;;9.38;5.03;;;;;;;;;;5148555;27;20042;-74
2023/06/20 00:28:02;;;;;;;;;;;;;;;;;;5148485;27;20046;-74
2023/06/20 00:30:32;;;;;;;7.53;4.28;;;;;;;;;;5128478;27;19923;-74
2023/06/20 00:33:03;;;;;;;7.90;4.88;;;;;;;;;;5147984;27;20046;-74
2023/06/20 00:35:36;;;;;;;4.90;3.15;;;;;;;;;;5148588;27;20051;-74
2023/06/20 00:38:06;;;;;;;7.32;3.85;;;;;;;;;;5111786;27;20055;-74
2023/06/20 00:40:36;;;;;;;12.95;7.55;;;;;;;;;;5147738;27;20413;-74
2023/06/20 00:43:08;;;;;;;9.82;5.00;;;;;;;;;;5146471;27;20049;-74
2023/06/20 00:45:40;;;;;;;7.25;4.60;;;;;;;;;;5147626;27;20047;-74
2023/06/20 00:48:12;;;;;;;9.10;5.07;;;;;;;;;;5147678;27;20763;-74
2023/06/20 00:50:44;;;;;;;11.02;5.93;;;;;;;;;;5147988;27;20405;-74
2023/06/20 00:53:16;;;;;;;11.73;5.40;;;;;;;;;;5145848;27;20394;-72
2023/06/20 00:55:48;;;;;;;6.25;4.65;;;;;;;;;;5146318;27;20038;-73
2023/06/20 00:58:22;;;;;;;8.23;5.22;;;;;;;;;;5139646;27;20542;-73
2023/06/20 01:00:53;;;;;;;7.85;4.57;;;;;;;;;;5135748;27;20059;-73
2023/06/20 01:03:24;;;;;;;12.43;5.97;;;;;;;;;;5146908;27;20069;-73
2023/06/20 01:06:10;;;;;;;9.82;5.43;;;;;;;;;;5145254;27;20059;-73
2023/06/20 01:08:59;;;;;;;8.00;4.63;;;;;;;;;;5145741;27;20046;-73
2023/06/20 01:11:37;;;;;;;7.90;5.32;;;;;;;;;;5145472;27;20038;-73
2023/06/20 01:14:12;;;;;;;7.90;4.65;;;;;;;;;;5145287;27;20045;-73
2023/06/20 01:16:57;;;;;;;11.60;5.78;;;;;;;;;;5125991;27;20458;-72
2023/06/20 01:19:56;;;;;;;8.57;4.75;;;;;;;;;;5126023;27;20550;-73
2023/06/20 01:22:56;;;;;;;7.75;4.97;;;;;;;;;;5126129;27;20057;-73
2023/06/20 01:25:35;;;;;;;;;;;;;;;;;;5126781;27;20057;-72
2023/06/20 01:28:27;;;;;;;9.40;6.07;;;;;;;;;;5147614;27;19922;-73
2023/06/20 01:31:39;;;;;;;11.65;5.05;;;;;;;;;;5127374;27;20539;-73
2023/06/20 01:34:17;;;;;;;7.65;4.85;;;;;;;;;;5145136;27;20055;-73
2023/06/20 01:36:53;;;;;;;9.60;5.05;;;;;;;;;;5147052;27;20049;-74
2023/06/20 01:39:32;;;;;;;7.05;4.93;;;;;;;;;;5146433;27;20047;-74
2023/06/20 01:42:04;;;;;;;6.22;4.00;;;;;;;;;;5147160;27;20047;-73
2023/06/20 01:44:36;;;;;;;6.15;3.65;;;;;;;;;;5128237;27;20047;-73
2023/06/20 01:47:08;;;;;;;6.13;4.53;;;;;;;;;;5146253;27;20055;-74
2023/06/20 01:49:40;;;;;;;5.18;4.05;;;;;;;;;;5146246;27;20485;-74
2023/06/20 01:52:12;;;;;;;6.60;3.58;;;;;;;;;;5146799;27;20050;-74
2023/06/20 01:54:47;;;;;;;8.93;4.78;;;;;;;;;;5126292;27;20062;-73
2023/06/20 01:57:20;;;;;;;10.57;4.53;;;;;;;;;;5146738;27;20563;-73
2023/06/20 01:59:53;;;;;;;6.85;3.97;;;;;;;;;;5127725;27;20054;-73
2023/06/20 02:02:24;;;;;;;5.65;3.70;;;;;;;;;;5127003;27;20536;-74
2023/06/20 02:04:58;;;;;;;8.60;4.97;;;;;;;;;;5127579;27;20413;-74
2023/06/20 02:07:32;;;;;;;7.28;4.97;;;;;;;;;;5127385;27;20551;-73
2023/06/20 02:10:05;;;;;;;5.68;4.60;;;;;;;;;;5127995;27;20055;-73
2023/06/20 02:12:37;;;;;;;7.15;4.45;;;;;;;;;;5109940;27;20532;-74
2023/06/20 02:15:09;;;;;;;9.95;5.05;;;;;;;;;;5110638;27;20057;-73
2023/06/20 02:17:40;;;;;;;8.80;4.70;;;;;;;;;;5146731;27;20047;-74
2023/06/20 02:20:12;;;;;;;10.85;4.82;;;;;;;;;;5145834;27;20057;-73
2023/06/20 02:22:46;;;;;;;7.10;4.55;;;;;;;;;;5146608;27;20050;-74
2023/06/20 02:25:33;;;;;;;6.15;3.88;;;;;;;;;;5146290;27;20053;-74
2023/06/20 02:28:09;;;;;;;6.15;3.33;;;;;;;;;;5127551;27;20050;-73
2023/06/20 02:30:40;;;;;;;7.25;4.30;;;;;;;;;;5146537;27;20408;-74
2023/06/20 02:33:13;;;;;;;7.97;4.72;;;;;;;;;;5147314;27;20038;-74
2023/06/20 02:35:48;;;;;;;7.00;4.43;;;;;;;;;;5145997;27;20061;-74
2023/06/20 02:38:18;;;;;;;7.40;4.80;;;;;;;;;;5146387;27;20458;-74
2023/06/20 02:40:51;;;;;;;9.73;4.95;;;;;;;;;;5127052;27;20412;-73
2023/06/20 02:43:22;;;;;;;5.35;3.58;;;;;;;;;;5126977;27;20053;-73
2023/06/20 02:46:00;;;;;;;6.05;4.10;;;;;;;;;;5146050;27;20413;-74
2023/06/20 02:48:54;;;;;;;5.75;3.60;;;;;;;;;;5127331;27;20054;-73
2023/06/20 02:51:28;;;;;;;;;;;;;;;;;;5088073;27;20047;-73
2023/06/20 02:54:09;;;;;;;6.72;3.00;;;;;;;;;;5127416;27;19923;-73
2023/06/20 02:56:42;;;;;;;6.53;3.38;;;;;;;;;;5127793;27;20054;-73
2023/06/20 02:59:13;;;;;;;17.42;9.73;;;;;;;;;;5127949;27;20416;-74
2023/06/20 03:01:47;;;;;;;7.22;4.57;;;;;;;;;;5145884;27;20042;-73
2023/06/20 03:04:21;;;;;;;6.60;3.50;;;;;;;;;;5126826;27;20532;-73
2023/06/20 03:06:53;;;;;;;6.80;3.70;;;;;;;;;;5129117;27;20497;-74
2023/06/20 03:09:24;;;;;;;6.45;3.00;;;;;;;;;;5131295;27;20051;-74
2023/06/20 03:11:55;;;;;;;3.85;2.72;;;;;;;;;;5130779;27;20404;-73
2023/06/20 03:14:27;;;;;;;6.40;3.42;;;;;;;;;;5131116;27;20098;-73
2023/06/20 03:16:59;;;;;;;4.60;2.88;;;;;;;;;;5149926;27;20050;-73
2023/06/20 03:19:32;;;;;;;4.25;2.80;;;;;;;;;;5130596;27;20042;-73
2023/06/20 03:22:08;;;;;;;4.13;2.80;;;;;;;;;;5130510;27;20097;-73
2023/06/20 03:24:39;;;;;;;5.20;3.20;;;;;;;;;;5149585;27;20050;-73
2023/06/20 03:27:09;;;;;;;4.20;2.78;;;;;;;;;;5149111;27;20527;-74
2023/06/20 03:29:40;;;;;;;5.03;2.50;;;;;;;;;;5149124;27;20061;-74
2023/06/20 03:32:10;;;;;;;;;;;;;;;;;;5131270;27;20050;-74
2023/06/20 03:34:40;;;;;;;3.00;2.25;;;;;;;;;;5130016;27;19922;-74
2023/06/20 03:37:10;;;;;;;5.32;2.72;;;;;;;;;;5130094;27;20527;-73
2023/06/20 03:39:41;;;;;;;4.32;2.80;;;;;;;;;;5130319;27;20046;-74
2023/06/20 03:42:11;;;;;;;;;;;;;;;;;;5149599;27;20123;-74
2023/06/20 03:44:41;;;;;;;6.57;2.97;;;;;;;;;;5149589;27;19932;-73
2023/06/20 03:47:12;;;;;;;3.80;2.45;;;;;;;;;;5129978;27;20058;-73
2023/06/20 03:49:43;;;;;;;7.35;2.92;;;;;;;;;;5148704;27;20051;-74
2023/06/20 03:52:15;;;;;;;6.75;3.00;;;;;;;;;;5129724;27;20058;-74
2023/06/20 03:54:46;;;;;;;6.00;3.20;;;;;;;;;;5129874;27;20654;-74
2023/06/20 03:57:17;;;;;;;3.72;2.58;;;;;;;;;;5130263;27;20058;-74
2023/06/20 03:59:47;;;;;;;3.63;2.78;;;;;;;;;;5129491;27;20050;-73
2023/06/20 04:02:17;;;;;;;4.20;2.78;;;;;;;;;;5148830;27;20053;-74
2023/06/20 04:04:52;;;;;;;4.05;2.63;;;;;;;;;;5148850;27;20058;-74
2023/06/20 04:07:23;;;;;;;3.97;3.15;;;;;;;;;;5148394;27;20050;-73
2023/06/20 04:09:53;;;;;;;4.57;3.17;;;;;;;;;;5148806;27;20050;-73
2023/06/20 04:12:25;;;;;;;4.25;2.70;;;;;;;;;;5129597;27;20057;-74
2023/06/20 04:14:57;;;;;;;3.10;2.67;;;;;;;;;;5129842;27;20043;-73
2023/06/20 04:17:27;;;;;;;4.30;3.28;;;;;;;;;;5147425;27;20057;-74
2023/06/20 04:19:59;;;;;;;3.28;2.55;;;;;;;;;;5129688;27;20042;-76
2023/06/20 04:22:29;;;;;;;3.80;2.70;;;;;;;;;;5148960;27;20050;-74
2023/06/20 04:25:00;;;;;;;4.82;3.28;;;;;;;;;;5129475;27;21183;-73
2023/06/20 04:27:31;;;;;;;4.20;2.42;;;;;;;;;;5129044;27;20054;-74
2023/06/20 04:30:05;;;;;;;5.18;3.00;;;;;;;;;;5128480;27;20062;-74
2023/06/20 04:32:37;;;;;;;4.55;3.60;;;;;;;;;;5129533;27;20508;-73
2023/06/20 04:35:10;;;;;;;3.92;2.70;;;;;;;;;;5129608;27;20051;-74
2023/06/20 04:37:42;;;;;;;3.95;2.95;;;;;;;;;;5129303;27;20387;-73
2023/06/20 04:40:14;;;;;;;7.85;4.22;;;;;;;;;;5128286;27;20420;-73
2023/06/20 04:42:47;;;;;;;5.65;3.60;;;;;;;;;;5128939;27;20058;-73
2023/06/20 04:45:19;;;;;;;15.00;3.03;;;;;;;;;;5148187;27;20050;-74
2023/06/20 04:47:50;;;;;;;4.22;3.10;;;;;;;;;;5128793;27;20054;-74
2023/06/20 04:50:22;;;;;;;6.32;2.80;;;;;;;;;;5129215;27;20055;-74
2023/06/20 04:52:52;;;;;;;5.32;2.70;;;;;;;;;;5148008;27;20055;-73
2023/06/20 04:55:22;;;;;;;;;;;;;;;;;;5128879;27;20062;-74
2023/06/20 04:57:54;;;;;;;3.40;2.08;;;;;;;;;;5128437;27;19930;-74
2023/06/20 05:00:26;;;;;;;4.00;2.65;;;;;;;;;;5147860;27;20053;-74
2023/06/20 05:02:58;;;;;;;3.90;3.17;;;;;;;;;;5128648;27;20051;-73
2023/06/20 05:05:29;;;;;;;4.20;2.60;;;;;;;;;;5128263;27;20054;-74
2023/06/20 05:08:00;;;;;;;5.38;2.80;;;;;;;;;;5128893;27;20058;-73
2023/06/20 05:10:31;;;;;;;4.63;3.53;;;;;;;;;;5147590;27;20393;-73
2023/06/20 05:13:01;;;;;;;6.00;2.58;;;;;;;;;;5147620;27;20046;-73
2023/06/20 05:15:31;;;;;;;;;;;;;;;;;;5128736;27;20057;-73
2023/06/20 05:18:03;;;;;;;4.20;2.42;;;;;;;;;;5147398;27;19930;-73
2023/06/20 05:20:33;;;;;;;3.72;2.55;;;;;;;;;;5147680;27;20039;-73
2023/06/20 05:23:03;;;;;;;3.80;2.40;;;;;;;;;;5128582;27;20050;-73
2023/06/20 05:25:34;;;;;;;5.65;2.70;;;;;;;;;;5147570;27;20508;-73
2023/06/20 05:28:05;;;;;;;4.15;3.03;;;;;;;;;;5146928;27;20047;-73
2023/06/20 05:30:35;;;;;;;5.25;3.35;;;;;;;;;;5128594;27;20062;-73
2023/06/20 05:33:05;;;;;;;5.60;3.30;;;;;;;;;;5146885;27;20051;-73
2023/06/20 05:35:37;;;;;;;5.63;3.35;;;;;;;;;;5147599;27;20054;-73
2023/06/20 05:38:07;;;;;;;5.53;2.95;;;;;;;;;;5147309;27;20050;-74
2023/06/20 05:40:38;;;;;;;4.45;3.05;;;;;;;;;;5128471;27;20050;-73
2023/06/20 05:43:15;;;;;;;4.75;3.47;;;;;;;;;;5146898;27;20835;-74
2023/06/20 05:45:45;;;;;;;10.82;3.00;;;;;;;;;;5146710;27;20048;-74
2023/06/20 05:48:16;;;;;;;5.30;2.88;;;;;;;;;;5146639;27;20544;-74
2023/06/20 05:50:46;;;;;;;4.13;2.88;;;;;;;;;;5147009;27;20497;-74
2023/06/20 05:53:16;;;;;;;5.03;2.90;;;;;;;;;;5146859;27;20038;-73
2023/06/20 05:55:49;;;;;;;3.85;2.78;;;;;;;;;;5145761;27;20051;-74
2023/06/20 05:58:20;;;;;;;5.25;3.10;;;;;;;;;;5147110;27;20039;-74
2023/06/20 06:00:51;;;;;;;5.70;3.00;;;;;;;;;;5146854;27;20054;-74
2023/06/20 06:03:21;;;;;;;5.35;3.30;;;;;;;;;;5146413;27;20390;-74
2023/06/20 06:05:52;;;;;;;4.57;3.15;;;;;;;;;;5128120;27;20053;-74
2023/06/20 06:08:25;;;;;;;6.47;3.97;;;;;;;;;;5146898;27;20053;-74
2023/06/20 06:10:55;;;;;;;4.63;3.10;;;;;;;;;;5146914;27;20043;-73
2023/06/20 06:13:25;;;;;;;4.95;3.08;;;;;;;;;;5146746;27;20039;-74
2023/06/20 06:15:55;;;;;;;6.03;3.70;;;;;;;;;;5146742;27;20054;-73
2023/06/20 06:18:30;;;;;;;4.80;3.30;;;;;;;;;;5146422;27;20405;-74
2023/06/20 06:21:01;;;;;;;6.13;3.05;;;;;;;;;;5146527;27;20050;-74
2023/06/20 06:23:31;;;;;;;5.28;2.85;;;;;;;;;;5146527;27;20151;-73
2023/06/20 06:26:02;;;;;;;6.75;3.85;;;;;;;;;;5146468;27;20046;-73
2023/06/20 06:28:32;;;;;;;5.88;3.33;;;;;;;;;;5146763;27;20417;-74
2023/06/20 06:31:11;;;;;;;4.35;2.90;;;;;;;;;;5126909;27;20053;-73
2023/06/20 06:33:42;;;;;;;5.07;3.20;;;;;;;;;;5146635;27;20046;-73
2023/06/20 06:36:15;;;;;;;4.93;2.75;;;;;;;;;;5146399;27;20053;-74
2023/06/20 06:38:50;;;;;;;5.22;3.13;;;;;;;;;;5127098;27;20055;-74
2023/06/20 06:41:23;;;;;;;5.75;2.90;;;;;;;;;;5147656;27;20041;-73
2023/06/20 06:43:54;;;;;;;5.03;3.90;;;;;;;;;;5150511;27;20046;-75
2023/06/20 06:46:28;;;;;;;6.45;3.08;;;;;;;;;;5131503;27;20054;-73
2023/06/20 06:48:58;;;;;;;6.00;3.25;;;;;;;;;;5150119;27;20054;-73
2023/06/20 06:51:28;;;;;;;5.90;3.40;;;;;;;;;;5150019;27;20046;-74
2023/06/20 06:53:59;;;;;;;4.57;2.95;;;;;;;;;;5149997;27;20042;-73
2023/06/20 06:56:29;;;;;;;8.93;3.10;;;;;;;;;;5150273;27;20815;-73
2023/06/20 06:59:02;;;;;;;5.13;2.42;;;;;;;;;;5150516;27;20050;-74
2023/06/20 07:01:33;;;;;;;8.77;3.08;;;;;;;;;;5150162;27;20084;-74
2023/06/20 07:04:03;;;;;;;5.00;2.92;;;;;;;;;;5149635;27;20039;-73
2023/06/20 07:06:35;;;;;;;6.25;2.80;;;;;;;;;;5149765;27;20054;-73
2023/06/20 07:09:06;;;;;;;5.38;2.60;;;;;;;;;;5150071;27;20051;-74
2023/06/20 07:11:36;;;;;;;5.18;2.50;;;;;;;;;;5150233;27;20050;-73
2023/06/20 07:14:07;;;;;;;4.65;2.22;;;;;;;;;;5131430;27;20065;-74
2023/06/20 07:16:38;;;;;;;4.80;2.50;;;;;;;;;;5149884;27;20034;-74
2023/06/20 07:19:27;;;;;;;5.78;2.45;;;;;;;;;;5150263;27;20417;-73
2023/06/20 07:21:57;;;;;;;4.57;2.60;;;;;;;;;;5149684;27;20417;-74
2023/06/20 07:24:29;;;;;;;4.75;2.38;;;;;;;;;;5150021;27;20512;-74
2023/06/20 07:27:00;;;;;;;4.63;2.95;;;;;;;;;;5149233;27;20501;-74
2023/06/20 07:29:29;;;;;;;3.92;2.30;;;;;;;;;;5149164;27;20497;-72
2023/06/20 07:32:00;;;;;;;;;;;;;;;;;;5150525;27;20043;-73
2023/06/20 07:34:30;;;;;;;4.90;2.30;;;;;;;;;;5148637;27;20377;-74
2023/06/20 07:37:01;;;;;;;5.47;2.65;;;;;;;;;;5148920;27;20062;-73
2023/06/20 07:39:31;;;;;;;5.97;3.47;;;;;;;;;;5149205;27;20050;-74
2023/06/20 07:42:02;;;;;;;6.70;3.67;;;;;;;;;;5149285;27;20050;-74
2023/06/20 07:44:32;;;;;;;4.47;3.22;;;;;;;;;;5148985;27;20043;-74
2023/06/20 07:47:03;;;;;;;4.82;3.30;;;;;;;;;;5149416;27;20039;-73
2023/06/20 07:49:33;;;;;;;4.78;3.25;;;;;;;;;;5149365;27;20050;-74
2023/06/20 07:52:04;;;;;;;6.50;3.50;;;;;;;;;;5148212;27;20540;-73
2023/06/20 07:54:34;;;;;;;6.30;3.88;;;;;;;;;;5148940;27;20050;-73
2023/06/20 07:57:05;;;;;;;3.58;3.03;;;;;;;;;;5149185;27;20068;-73
2023/06/20 07:59:38;;;;;;;3.25;2.47;;;;;;;;;;5148850;27;20417;-73
2023/06/20 08:02:09;;;;;;;3.78;2.33;;;;;;;;;;5148701;27;20043;-74
2023/06/20 08:04:39;;;;;;;2.70;1.90;;;;;;;;;;5148585;27;20051;-74
2023/06/20 08:07:10;;;;;;;4.63;2.72;;;;;;;;;;5149149;27;20054;-73
2023/06/20 08:09:41;;;;;;;4.65;2.55;;;;;;;;;;5149682;27;20050;-73
2023/06/20 08:12:11;;;;;;;3.72;2.65;;;;;;;;;;5148764;27;20071;-74
2023/06/20 08:14:43;;;;;;;4.60;3.15;;;;;;;;;;5148728;27;20043;-74
2023/06/20 08:17:14;;;;;;;4.70;3.40;;;;;;;;;;5130506;27;20046;-74
2023/06/20 08:19:44;;;;;;;5.25;3.72;;;;;;;;;;5148674;27;20046;-73
2023/06/20 08:22:14;;;;;;;4.38;2.95;;;;;;;;;;5148790;27;20069;-73
2023/06/20 08:24:44;;;;;;;6.72;3.40;;;;;;;;;;5148713;27;20058;-73
2023/06/20 08:27:15;;;;;;;3.30;2.55;;;;;;;;;;5147099;27;20053;-75
2023/06/20 08:29:46;;;;;;;6.10;2.65;;;;;;;;;;5129495;27;20081;-76
2023/06/20 08:32:16;;;;;;;4.10;2.80;;;;;;;;;;5148353;27;20050;-73
2023/06/20 08:34:49;;;;;;;5.38;2.80;;;;;;;;;;5148536;27;20049;-73
2023/06/20 08:37:23;;;;;;;;;;;;;;;;;;5148590;27;20046;-73
2023/06/20 08:39:53;;;;;;;3.80;2.22;;;;;;;;;;5148140;27;20419;-73
2023/06/20 08:42:23;;;;;;;5.15;2.63;;;;;;;;;;5148819;27;20043;-74
2023/06/20 08:44:56;;;;;;;5.38;2.63;;;;;;;;;;5148761;27;20047;-73
2023/06/20 08:47:30;;;;;;;5.97;3.85;;;;;;;;;;5128579;27;20140;-74
2023/06/20 08:50:00;;;;;;;6.50;3.53;;;;;;;;;;5147581;27;20050;-73
2023/06/20 08:52:31;;;;;;;5.68;3.95;;;;;;;;;;5148247;27;20547;-73
2023/06/20 08:55:01;;;;;;;8.07;4.50;;;;;;;;;;5147416;27;20049;-73
2023/06/20 08:57:33;;;;;;;7.38;5.22;;;;;;;;;;5148379;27;20049;-73
2023/06/20 09:00:06;;;;;;;8.73;4.85;;;;;;;;;;5147977;27;20047;-73
2023/06/20 09:02:39;;;;;;;;;;;;;;;;;;5148672;27;20043;-73
2023/06/20 09:05:09;;;;;;;7.90;4.57;;;;;;;;;;5146811;27;19927;-73
2023/06/20 09:07:41;;;;;;;11.48;6.32;;;;;;;;;;5147176;27;20051;-73
2023/06/20 09:10:16;;;;;;;10.15;7.28;;;;;;;;;;5147429;27;20436;-73
2023/06/20 09:12:59;;;;;;;12.40;7.70;;;;;;;;;;5147611;27;20034;-73
2023/06/20 09:15:29;;;;;;;11.02;6.43;;;;;;;;;;5147562;27;20039;-73
2023/06/20 09:18:02;;;;;;;11.18;7.55;;;;;;;;;;5147964;27;20057;-74
2023/06/20 09:20:35;;;;;;;13.35;7.55;;;;;;;;;;5147369;27;20050;-73
2023/06/20 09:23:05;;;;;;;14.77;7.35;;;;;;;;;;5147355;27;20050;-73
2023/06/20 09:25:39;;;;;;;14.82;8.00;;;;;;;;;;5147342;27;20039;-73
2023/06/20 09:28:17;;;;;;;18.08;10.50;;;;;;;;;;5146896;27;20043;-73
2023/06/20 09:30:48;;;;;;;16.15;9.20;;;;;;;;;;5147242;27;20043;-73
2023/06/20 09:33:19;;;;;;;12.68;8.27;;;;;;;;;;5147338;27;20046;-74
2023/06/20 09:35:49;;;;;;;18.27;8.02;;;;;;;;;;5147531;27;20047;-73
2023/06/20 09:38:19;;;;;;;13.68;6.90;;;;;;;;;;5127795;27;20047;-73
2023/06/20 09:40:53;;;;;;;10.68;6.38;;;;;;;;;;5147089;27;20054;-73
2023/06/20 09:43:24;;;;;;;15.38;5.93;;;;;;;;;;5146653;27;20047;-73
2023/06/20 09:45:54;;;;;;;8.98;5.40;;;;;;;;;;5147276;27;20065;-73
2023/06/20 09:48:25;;;;;;;12.70;5.80;;;;;;;;;;5128221;27;20054;-73
2023/06/20 09:50:58;;;;;;;14.52;7.40;;;;;;;;;;5145410;27;20513;-73
2023/06/20 09:53:58;;;;;;;12.40;7.15;;;;;;;;;;5147219;27;20047;-73
2023/06/20 09:56:30;;;;;;;12.65;7.68;;;;;;;;;;5146955;27;20062;-75
2023/06/20 09:59:01;;;;;;;17.00;6.90;;;;;;;;;;5146670;27;20046;-74
2023/06/20 10:01:35;;;;;;;11.13;7.30;;;;;;;;;;5127551;27;20058;-74
2023/06/20 10:04:07;;;;;;;11.75;6.75;;;;;;;;;;5127296;27;20420;-73
2023/06/20 10:06:39;;;;;;;10.18;6.00;;;;;;;;;;5146702;27;20610;-74
2023/06/20 10:09:10;;;;;;;8.98;5.75;;;;;;;;;;5127699;27;20061;-74
2023/06/20 10:11:42;;;;;;;12.73;4.97;;;;;;;;;;5147566;27;20046;-74
2023/06/20 10:14:13;;;;;;;11.95;6.13;;;;;;;;;;5146507;27;20401;-75
2023/06/20 10:16:51;;;;;;;10.95;5.93;;;;;;;;;;5145364;27;20054;-74
2023/06/20 10:19:21;;;;;;;10.25;5.80;;;;;;;;;;5146809;27;20047;-75
2023/06/20 10:22:00;;;;;;;14.82;7.15;;;;;;;;;;5146433;27;20065;-75
2023/06/20 10:24:32;;;;;;;11.35;6.20;;;;;;;;;;5146347;27;20046;-75
2023/06/20 10:27:03;;;;;;;15.10;7.32;;;;;;;;;;5146862;27;20050;-75
2023/06/20 10:29:42;;;;;;;15.60;6.80;;;;;;;;;;5144652;27;20420;-72
2023/06/20 10:32:14;;;;;;;19.15;7.22;;;;;;;;;;5145655;27;20428;-73
2023/06/20 10:34:45;;;;;;;39.25;9.20;;;;;;;;;;5126811;27;20404;-75
2023/06/20 10:37:27;;;;;;;12.55;7.53;;;;;;;;;;5146280;27;20051;-76
2023/06/20 10:39:58;;;;;;;13.75;6.47;;;;;;;;;;5145465;27;20520;-73
2023/06/20 10:42:40;;;;;;;16.92;8.35;;;;;;;;;;5147033;27;20226;-73
2023/06/20 10:45:22;;;;;;;19.75;9.82;;;;;;;;;;5146141;27;20512;-74
2023/06/20 10:47:54;;;;;;;14.55;9.00;;;;;;;;;;5146508;27;20055;-73
2023/06/20 10:50:24;;;;;;;16.40;7.93;;;;;;;;;;5146227;27;20046;-73
2023/06/20 10:52:58;;;;;;;13.02;6.65;;;;;;;;;;5146117;27;20051;-74
2023/06/20 10:55:30;;;;;;;11.88;7.82;;;;;;;;;;5147034;27;20378;-74
2023/06/20 10:58:01;;;;;;;17.38;8.60;;;;;;;;;;5127146;27;20519;-73
2023/06/20 11:00:30;;;;;;;12.77;7.78;;;;;;;;;;5146679;27;20046;-73
2023/06/20 11:03:01;;;;;;;12.88;8.48;;;;;;;;;;5145736;27;20042;-73
2023/06/20 11:05:33;;;;;;;14.38;8.73;;;;;;;;;;5126371;27;20513;-73
2023/06/20 11:08:10;;;;;;;12.20;7.75;;;;;;;;;;5126234;27;20051;-73
2023/06/20 11:10:42;;;;;;;17.48;11.25;;;;;;;;;;5145880;27;20053;-73
2023/06/20 11:13:15;;;;;;;21.33;10.70;;;;;;;;;;5146204;27;20053;-74
2023/06/20 11:15:45;;;;;;;25.15;13.07;;;;;;;;;;5146167;27;20047;-73
2023/06/20 11:18:16;;;;;;;17.83;10.88;;;;;;;;;;5145755;27;20054;-73
2023/06/20 11:20:46;;;;;;;21.65;10.20;;;;;;;;;;5145078;27;20046;-73
2023/06/20 11:23:16;;;;;;;20.08;9.77;;;;;;;;;;5145897;27;20038;-72
2023/06/20 11:25:45;;;;;;;;;;;;;;;;;;5146503;27;20520;-73
2023/06/20 11:28:18;;;;;;;15.88;8.45;;;;;;;;;;5148718;27;20401;-74
2023/06/20 11:30:50;;;;;;;14.13;8.32;;;;;;;;;;5130511;27;20058;-73
2023/06/20 11:33:21;;;;;;;13.65;7.65;;;;;;;;;;5149280;27;20034;-72
2023/06/20 11:35:51;;;;;;;;;;;;;;;;;;5148979;27;20043;-73
2023/06/20 11:38:22;;;;;;;15.05;7.80;;;;;;;;;;5148333;27;20480;-73
2023/06/20 11:41:07;;;;;;;22.83;8.50;;;;;;;;;;5148346;27;20054;-73
2023/06/20 11:43:43;;;;;;;15.88;8.38;;;;;;;;;;5149083;27;20047;-73
2023/06/20 11:46:13;;;;;;;12.55;7.65;;;;;;;;;;5148508;27;20035;-73
2023/06/20 11:48:56;;;;;;;16.33;9.75;;;;;;;;;;5149283;27;20054;-73
2023/06/20 11:51:30;;;;;;;13.40;8.40;;;;;;;;;;5147718;27;20057;-73
2023/06/20 11:54:07;;;;;;;15.50;8.23;;;;;;;;;;5148806;27;20050;-73
2023/06/20 11:56:37;;;;;;;19.35;8.95;;;;;;;;;;5148658;27;20046;-72
2023/06/20 11:59:08;;;;;;;18.75;9.35;;;;;;;;;;5148955;27;20046;-73
2023/06/20 12:01:45;;;;;;;14.60;10.27;;;;;;;;;;5149273;27;20046;-73
2023/06/20 12:04:21;;;;;;;17.05;9.85;;;;;;;;;;5148461;27;20055;-72
2023/06/20 12:07:03;;;;;;;15.70;7.43;;;;;;;;;;5149055;27;20054;-72
2023/06/20 12:09:41;;;;;;;11.77;7.22;;;;;;;;;;5148646;27;20051;-73
2023/06/20 12:12:12;;;;;;;10.68;6.70;;;;;;;;;;5149120;27;20507;-73
2023/06/20 12:14:47;;;;;;;11.18;6.68;;;;;;;;;;5148435;27;20061;-73
2023/06/20 12:17:18;;;;;;;9.75;6.60;;;;;;;;;;5148942;27;20066;-73
2023/06/20 12:19:52;;;;;;;13.13;6.68;;;;;;;;;;5129945;27;20055;-72
2023/06/20 12:22:25;;;;;;;9.00;6.13;;;;;;;;;;5149233;27;20039;-73
2023/06/20 12:24:56;;;;;;;12.40;6.20;;;;;;;;;;5148445;27;20508;-73
2023/06/20 12:27:27;;;;;;;10.38;6.05;;;;;;;;;;5148815;27;20054;-72
2023/06/20 12:29:57;;;;;;;11.43;6.78;;;;;;;;;;5148919;27;20408;-73
2023/06/20 12:32:28;;;;;;;10.32;6.95;;;;;;;;;;5148844;27;20413;-73
2023/06/20 12:35:00;;;;;;;11.00;6.57;;;;;;;;;;5148558;27;20389;-73
2023/06/20 12:37:30;;;;;;;14.60;6.03;;;;;;;;;;5149046;27;20401;-72
2023/06/20 12:40:01;;;;;;;14.50;5.82;;;;;;;;;;5147077;27;20046;-73
2023/06/20 12:42:31;;;;;;;10.98;5.35;;;;;;;;;;5148294;27;20057;-73
2023/06/20 12:45:06;;;;;;;15.60;5.88;;;;;;;;;;5148141;27;20396;-75
2023/06/20 12:47:38;;;;;;;8.45;5.03;;;;;;;;;;5147920;27;20046;-75
2023/06/20 12:50:09;;;;;;;8.50;5.43;;;;;;;;;;5147802;27;20093;-73
2023/06/20 12:52:39;;;;;;;20.67;7.18;;;;;;;;;;5147964;27;20035;-73
2023/06/20 12:55:11;;;;;;;12.88;4.93;;;;;;;;;;5148160;27;20047;-73
2023/06/20 12:57:41;;;;;;;8.77;4.72;;;;;;;;;;5147647;27;20039;-73
2023/06/20 13:00:13;;;;;;;8.05;4.50;;;;;;;;;;5147793;27;20050;-73
2023/06/20 13:02:45;;;;;;;8.38;4.55;;;;;;;;;;5129130;27;20070;-74
2023/06/20 13:05:16;;;;;;;8.07;4.47;;;;;;;;;;5147898;27;20039;-75
2023/06/20 13:07:47;;;;;;;10.18;4.68;;;;;;;;;;5148357;27;20100;-74
2023/06/20 13:10:19;;;;;;;7.95;3.90;;;;;;;;;;5147993;27;20046;-74
2023/06/20 13:12:54;;;;;;;7.30;3.88;;;;;;;;;;5147593;27;20045;-74
2023/06/20 13:15:29;;;;;;;10.30;3.63;;;;;;;;;;5147592;27;20050;-74
2023/06/20 13:18:03;;;;;;;6.18;3.53;;;;;;;;;;5128415;27;20050;-73
2023/06/20 13:20:34;;;;;;;6.05;3.60;;;;;;;;;;5147560;27;20045;-73
2023/06/20 13:23:05;;;;;;;13.23;4.50;;;;;;;;;;5147784;27;20041;-74
2023/06/20 13:25:37;;;;;;;10.23;4.32;;;;;;;;;;5146785;27;20047;-73
2023/06/20 13:28:07;;;;;;;4.82;3.38;;;;;;;;;;5147609;27;20051;-73
2023/06/20 13:30:38;;;;;;;6.72;3.58;;;;;;;;;;5147552;27;20061;-74
2023/06/20 13:33:12;;;;;;;6.38;3.75;;;;;;;;;;5147336;27;20039;-73
2023/06/20 13:35:44;;;;;;;8.85;3.08;;;;;;;;;;5145924;27;20615;-73
2023/06/20 13:38:14;;;;;;;7.40;4.25;;;;;;;;;;5146783;27;20428;-73
2023/06/20 13:40:44;;;;;;;5.43;3.38;;;;;;;;;;5147039;27;20485;-74
2023/06/20 13:43:14;;;;;;;5.45;3.03;;;;;;;;;;5147068;27;20042;-73
2023/06/20 13:45:45;;;;;;;6.70;3.20;;;;;;;;;;5147215;27;20086;-73
2023/06/20 13:48:15;;;;;;;17.60;4.03;;;;;;;;;;5147022;27;20055;-73
2023/06/20 13:50:45;;;;;;;5.03;2.95;;;;;;;;;;5128111;27;20049;-73
2023/06/20 13:53:16;;;;;;;4.10;2.95;;;;;;;;;;5146947;27;20065;-72
2023/06/20 13:55:46;;;;;;;3.28;2.80;;;;;;;;;;5147051;27;20054;-73
2023/06/20 13:58:17;;;;;;;6.07;3.08;;;;;;;;;;5146805;27;20043;-73
2023/06/20 14:00:48;;;;;;;4.45;2.83;;;;;;;;;;5129087;27;20050;-73
2023/06/20 14:03:21;;;;;;;10.65;4.20;;;;;;;;;;5146567;27;20043;-73
2023/06/20 14:05:52;;;;;;;4.75;3.08;;;;;;;;;;5146755;27;20049;-73
2023/06/20 14:08:23;;;;;;;8.38;3.25;;;;;;;;;;5147255;27;20120;-75
2023/06/20 14:10:54;;;;;;;7.53;3.58;;;;;;;;;;5128438;27;20031;-74
2023/06/20 14:13:25;;;;;;;5.03;3.22;;;;;;;;;;5146368;27;20497;-74
2023/06/20 14:15:55;;;;;;;6.00;3.58;;;;;;;;;;5146476;27;20047;-74
2023/06/20 14:18:26;;;;;;;4.05;3.15;;;;;;;;;;5146773;27;20047;-73
2023/06/20 14:20:57;;;;;;;7.85;3.38;;;;;;;;;;5146546;27;20046;-73
2023/06/20 14:23:28;;;;;;;8.07;3.17;;;;;;;;;;5146189;27;20051;-74
2023/06/20 14:25:59;;;;;;;6.63;3.78;;;;;;;;;;5146328;27;20038;-75
2023/06/20 14:28:29;;;;;;;4.95;2.92;;;;;;;;;;5146595;27;20045;-74
2023/06/20 14:31:00;;;;;;;5.35;3.10;;;;;;;;;;5127345;27;20058;-73
2023/06/20 14:33:31;;;;;;;6.78;3.22;;;;;;;;;;5146854;27;20045;-74
2023/06/20 14:36:01;;;;;;;8.07;3.72;;;;;;;;;;5146930;27;20050;-73
2023/06/20 14:38:33;;;;;;;7.97;3.47;;;;;;;;;;5146467;27;20049;-76
2023/06/20 14:41:03;;;;;;;4.13;2.95;;;;;;;;;;5146610;27;20868;-74
2023/06/20 14:43:34;;;;;;;7.55;3.28;;;;;;;;;;5146381;27;20508;-74
2023/06/20 14:46:04;;;;;;;5.40;3.38;;;;;;;;;;5146588;27;20382;-74
2023/06/20 14:48:35;;;;;;;11.13;4.07;;;;;;;;;;5146126;27;20051;-78
2023/06/20 14:51:06;;;;;;;7.88;4.15;;;;;;;;;;5146474;27;20408;-80
2023/06/20 14:53:37;;;;;;;7.70;2.95;;;;;;;;;;5146729;27;20047;-79
2023/06/20 14:56:09;;;;;;;4.85;3.20;;;;;;;;;;5146164;27;20551;-81
2023/06/20 14:58:39;;;;;;;8.85;3.80;;;;;;;;;;5146071;27;20519;-79
2023/06/20 15:01:11;;;;;;;17.70;3.75;;;;;;;;;;5146231;27;20509;-80
2023/06/20 15:03:42;;;;;;;8.07;3.58;;;;;;;;;;5149950;27;20058;-80
2023/06/20 15:06:12;;;;;;;7.70;3.75;;;;;;;;;;5150060;27;20516;-80
2023/06/20 15:08:42;;;;;;;6.03;4.05;;;;;;;;;;5150728;27;20421;-78
2023/06/20 15:11:13;;;;;;;5.68;3.60;;;;;;;;;;5150063;27;20038;-79
2023/06/20 15:13:44;;;;;;;6.15;3.78;;;;;;;;;;5130951;27;20432;-79